Time;durP1;ratioP1;P1;durP2;ratioP2;P2;SDS_P1;SDS_P2;PMS_P1;PMS_P2;Temp;Humidity;BMP_temperature;BMP_pressure;BME280_temperature;BME280_humidity;BME280_pressure;Samples;Min_cycle;Max_cycle;Signal;HPM_P1;HPM_P2
2023/01/30 00:01:01;;;;;;;25.23;13.30;;;-0.70;87.00;;;;;;5012433;28;20986;-76
2023/01/30 00:03:26;;;;;;;27.77;13.68;;;-0.70;86.90;;;;;;5013935;28;20692;-75
2023/01/30 00:05:53;;;;;;;32.53;14.30;;;-0.80;86.80;;;;;;5020007;28;20188;-76
2023/01/30 00:08:19;;;;;;;28.58;14.45;;;-0.80;86.90;;;;;;5016913;28;20431;-76
2023/01/30 00:10:45;;;;;;;33.63;14.20;;;-0.90;86.90;;;;;;5012942;28;20198;-76
2023/01/30 00:13:13;;;;;;;27.33;14.05;;;-0.90;87.00;;;;;;5019132;28;20243;-75
2023/01/30 00:15:38;;;;;;;28.85;12.43;;;-1.00;87.00;;;;;;5015996;28;20700;-77
2023/01/30 00:18:04;;;;;;;29.17;14.30;;;-0.90;87.10;;;;;;5013511;28;20213;-76
2023/01/30 00:20:30;;;;;;;30.47;13.43;;;-0.90;87.40;;;;;;5007234;28;20608;-75
2023/01/30 00:22:57;;;;;;;29.17;13.27;;;-0.90;87.40;;;;;;5013864;28;20295;-76
2023/01/30 00:25:23;;;;;;;26.08;13.27;;;-0.80;87.40;;;;;;5010893;28;20294;-76
2023/01/30 00:27:49;;;;;;;27.63;13.40;;;-0.80;87.40;;;;;;5021104;28;20177;-76
2023/01/30 00:30:14;;;;;;;28.93;13.90;;;-0.70;87.30;;;;;;5012890;28;20685;-75
2023/01/30 00:32:40;;;;;;;28.93;13.10;;;-0.70;86.90;;;;;;5016255;28;20208;-75
2023/01/30 00:35:06;;;;;;;26.77;12.60;;;-0.60;86.80;;;;;;5012802;28;20186;-75
2023/01/30 00:37:31;;;;;;;27.70;12.97;;;-0.60;86.80;;;;;;5017922;28;20193;-77
2023/01/30 00:39:57;;;;;;;26.53;11.90;;;-0.70;86.30;;;;;;5024146;28;20514;-76
2023/01/30 00:47:54;;;;;;;31.20;13.35;;;-0.80;86.30;;;;;;5026750;28;20185;-76
2023/01/30 00:50:20;;;;;;;31.40;14.17;;;-0.90;86.50;;;;;;5018793;28;20205;-75
2023/01/30 00:52:46;;;;;;;27.80;13.87;;;-0.80;86.60;;;;;;5024823;28;20793;-75
2023/01/30 00:55:11;;;;;;;26.50;13.70;;;-0.90;86.50;;;;;;5021105;28;20200;-74
2023/01/30 00:57:37;;;;;;;33.80;13.63;;;-0.90;86.50;;;;;;5025821;28;20661;-76
2023/01/30 01:00:04;;;;;;;25.77;12.40;;;-0.90;86.50;;;;;;5022844;28;20202;-75
2023/01/30 01:02:30;;;;;;;32.55;13.90;;;-1.00;86.50;;;;;;5023773;28;20225;-75
2023/01/30 01:04:56;;;;;;;26.75;12.57;;;-0.90;86.80;;;;;;5023443;28;20228;-76
2023/01/30 01:07:21;;;;;;;35.97;13.33;;;-0.90;86.90;;;;;;5029732;28;20188;-75
2023/01/30 01:09:47;;;;;;;38.33;12.73;;;-0.80;87.00;;;;;;5023112;28;20203;-75
2023/01/30 01:12:12;;;;;;;23.20;12.60;;;-0.70;86.80;;;;;;5022933;28;20186;-75
2023/01/30 01:14:38;;;;;;;29.03;12.53;;;-0.70;86.50;;;;;;5020813;28;20618;-75
2023/01/30 01:17:04;;;;;;;30.07;12.50;;;-0.60;86.50;;;;;;5029688;28;20184;-75
2023/01/30 01:19:29;;;;;;;28.60;13.47;;;-0.60;85.70;;;;;;5022063;28;20178;-76
2023/01/30 01:21:55;;;;;;;27.73;13.03;;;-0.60;85.50;;;;;;5038609;28;20195;-74
2023/01/30 01:24:20;;;;;;;24.43;12.33;;;-0.60;85.30;;;;;;5029448;28;20217;-74
2023/01/30 01:26:46;;;;;;;26.10;12.33;;;-0.60;85.20;;;;;;5033441;28;20189;-74
2023/01/30 01:29:13;;;;;;;27.50;14.07;;;-0.60;85.20;;;;;;5024699;28;20617;-76
2023/01/30 01:31:39;;;;;;;28.50;13.52;;;-0.50;85.50;;;;;;5020156;28;20197;-74
2023/01/30 01:34:04;;;;;;;30.00;14.07;;;-0.50;85.00;;;;;;5018111;28;20269;-75
2023/01/30 01:36:30;;;;;;;26.43;13.27;;;-0.50;84.90;;;;;;5019295;28;20189;-77
2023/01/30 01:38:55;;;;;;;31.17;13.10;;;-0.50;84.60;;;;;;5033184;28;20193;-74
2023/01/30 01:41:21;;;;;;;27.50;12.33;;;-0.60;84.60;;;;;;5016319;28;20280;-75
2023/01/30 01:44:07;;;;;;;28.07;14.23;;;-0.70;84.70;;;;;;5018354;28;20240;-75
2023/01/30 01:46:42;;;;;;;26.95;12.77;;;-0.60;85.20;;;;;;5021631;28;20554;-74
2023/01/30 01:49:14;;;;;;;29.20;12.75;;;-0.60;85.00;;;;;;5024363;28;20177;-76
2023/01/30 01:51:48;;;;;;;26.63;12.95;;;-0.60;85.00;;;;;;5013662;28;20212;-76
2023/01/30 01:54:22;;;;;;;29.75;12.57;;;-0.60;85.30;;;;;;5022048;28;20231;-75
2023/01/30 01:56:48;;;;;;;24.92;13.18;;;-0.60;85.50;;;;;;5018378;28;20189;-76
2023/01/30 01:59:29;;;;;;;24.15;11.88;;;-0.50;85.60;;;;;;5020996;28;20627;-75
2023/01/30 02:02:04;;;;;;;31.50;12.85;;;-0.50;85.60;;;;;;5017119;28;20228;-76
2023/01/30 02:07:19;;;;;;;22.20;11.43;;;-0.50;85.20;;;;;;5027289;28;20213;-74
2023/01/30 02:09:44;;;;;;;26.08;12.40;;;-0.50;85.20;;;;;;4995644;28;20282;-75
2023/01/30 02:12:13;;;;;;;23.73;12.27;;;-0.50;85.50;;;;;;5016419;28;20190;-75
2023/01/30 02:14:40;;;;;;;27.83;12.15;;;-0.40;85.50;;;;;;5019258;28;20181;-75
2023/01/30 02:17:05;;;;;;;28.52;13.40;;;-0.40;85.20;;;;;;5017413;28;20190;-75
2023/01/30 02:19:53;;;;;;;27.57;13.20;;;-0.40;84.70;;;;;;5016377;28;20210;-76
2023/01/30 02:22:27;;;;;;;23.50;12.65;;;-0.50;84.60;;;;;;5012915;28;20661;-76
2023/01/30 02:25:26;;;;;;;22.33;12.20;;;-0.60;84.70;;;;;;5014193;28;20192;-75
2023/01/30 02:28:28;;;;;;;29.92;13.02;;;-0.70;85.20;;;;;;5015118;28;20532;-76
2023/01/30 02:31:07;;;;;;;28.30;12.65;;;-0.70;85.30;;;;;;5011732;28;20212;-76
2023/01/30 02:33:45;;;;;;;27.98;13.40;;;-0.80;85.60;;;;;;5020734;28;20852;-76
2023/01/30 02:36:34;;;;;;;25.25;14.05;;;-0.80;85.70;;;;;;5013021;28;20177;-75
2023/01/30 02:39:00;;;;;;;27.58;13.32;;;-0.80;85.90;;;;;;5018294;28;20613;-76
2023/01/30 02:41:35;;;;;;;28.30;12.77;;;-0.90;85.90;;;;;;5018839;28;20209;-76
2023/01/30 02:44:05;;;;;;;26.20;13.27;;;-0.90;86.00;;;;;;5021901;28;20209;-76
2023/01/30 02:46:40;;;;;;;31.35;14.05;;;-1.00;86.30;;;;;;5013819;28;20174;-76
2023/01/30 02:49:21;;;;;;;32.20;13.95;;;-1.00;86.30;;;;;;5020371;28;20177;-75
2023/01/30 02:51:49;;;;;;;26.20;13.25;;;-1.10;86.50;;;;;;5009985;28;20351;-75
2023/01/30 02:54:15;;;;;;;30.35;13.00;;;-1.20;86.80;;;;;;5010486;28;20193;-76
2023/01/30 02:56:52;;;;;;;28.50;13.30;;;-1.20;87.00;;;;;;5015722;28;20182;-77
2023/01/30 02:59:25;;;;;;;25.23;12.95;;;-1.30;87.30;;;;;;5013293;28;20503;-76
2023/01/30 03:02:15;;;;;;;25.95;12.75;;;-1.40;87.40;;;;;;5010880;28;20217;-75
2023/01/30 03:05:01;;;;;;;33.55;13.70;;;-1.40;87.60;;;;;;5019890;28;20182;-75
2023/01/30 03:07:51;;;;;;;28.10;14.07;;;-1.40;87.80;;;;;;5021217;28;20220;-75
2023/01/30 03:10:42;;;;;;;31.27;14.68;;;-1.50;88.00;;;;;;5016643;28;20223;-76
2023/01/30 03:13:08;;;;;;;26.25;12.65;;;-1.50;88.10;;;;;;5014026;28;20190;-75
2023/01/30 03:15:43;;;;;;;28.23;13.23;;;-1.40;88.30;;;;;;5015481;28;20191;-75
2023/01/30 03:18:09;;;;;;;21.98;13.13;;;-1.30;88.40;;;;;;5009950;28;20261;-75
2023/01/30 03:20:37;;;;;;;30.00;13.38;;;-1.20;88.40;;;;;;5015211;28;20205;-77
2023/01/30 03:23:02;;;;;;;33.13;13.60;;;-1.10;88.00;;;;;;5017535;28;20220;-74
2023/01/30 03:25:28;;;;;;;38.90;13.40;;;-1.10;87.70;;;;;;5020015;28;20186;-73
2023/01/30 03:27:55;;;;;;;26.93;12.77;;;-1.10;87.60;;;;;;5016561;28;20193;-74
2023/01/30 03:30:23;;;;;;;28.10;13.57;;;-0.90;87.40;;;;;;5018578;28;20215;-76
2023/01/30 03:32:48;;;;;;;27.20;11.82;;;-0.90;86.90;;;;;;5028908;28;21087;-75
2023/01/30 03:35:16;;;;;;;22.73;12.07;;;-0.80;86.50;;;;;;5014588;28;20205;-74
2023/01/30 03:37:43;;;;;;;24.60;11.90;;;-0.60;85.70;;;;;;5014548;28;20185;-75
2023/01/30 03:40:10;;;;;;;26.40;11.70;;;-0.50;85.20;;;;;;5014495;28;20206;-75
2023/01/30 03:42:35;;;;;;;21.85;11.20;;;-0.30;84.40;;;;;;5028829;28;20198;-74
2023/01/30 03:45:01;;;;;;;24.40;10.30;;;-0.20;83.60;;;;;;5022828;28;20181;-74
2023/01/30 03:47:26;;;;;;;28.17;11.43;;;-0.10;82.20;;;;;;5024835;28;20180;-73
2023/01/30 03:49:52;;;;;;;23.10;10.97;;;-0.10;81.70;;;;;;5015539;28;20985;-74
2023/01/30 03:52:17;;;;;;;22.37;10.40;;;-0.10;81.70;;;;;;5024772;28;20206;-75
2023/01/30 03:54:43;;;;;;;18.93;10.50;;;0.00;81.50;;;;;;5022515;28;20209;-75
2023/01/30 03:57:08;;;;;;;23.90;11.27;;;0.00;81.20;;;;;;5015519;28;20640;-74
2023/01/30 03:59:34;;;;;;;19.70;11.33;;;0.00;81.10;;;;;;5016227;28;20186;-73
2023/01/30 04:01:59;;;;;;;20.83;11.03;;;0.10;80.90;;;;;;5012067;28;20253;-73
2023/01/30 04:04:25;;;;;;;17.57;10.30;;;0.10;80.80;;;;;;5018604;28;20225;-76
2023/01/30 04:06:51;;;;;;;23.20;11.17;;;0.10;80.80;;;;;;5016456;28;20185;-76
2023/01/30 04:09:16;;;;;;;22.77;10.60;;;0.10;80.90;;;;;;5015516;28;20217;-76
2023/01/30 04:11:42;;;;;;;24.77;11.30;;;0.10;80.90;;;;;;5024099;28;20213;-76
2023/01/30 04:14:07;;;;;;;19.50;9.93;;;0.00;81.10;;;;;;5010131;28;20186;-76
2023/01/30 04:16:33;;;;;;;25.30;10.80;;;0.00;81.40;;;;;;5013183;28;20194;-76
2023/01/30 04:18:59;;;;;;;28.10;11.50;;;-0.10;81.50;;;;;;5015116;28;20240;-77
2023/01/30 04:21:24;;;;;;;19.20;10.40;;;-0.10;81.50;;;;;;5012010;28;20270;-78
2023/01/30 04:23:50;;;;;;;22.97;11.10;;;-0.10;81.40;;;;;;5011520;28;20212;-76
2023/01/30 04:26:15;;;;;;;20.20;10.10;;;-0.10;81.20;;;;;;5011453;28;20188;-76
2023/01/30 04:28:43;;;;;;;20.83;10.17;;;0.00;81.20;;;;;;5011412;28;20257;-76
2023/01/30 04:31:09;;;;;;;23.77;9.88;;;0.00;80.90;;;;;;5010735;28;20229;-77
2023/01/30 04:33:34;;;;;;;23.97;10.53;;;0.10;80.60;;;;;;5018488;28;20217;-76
2023/01/30 04:36:02;;;;;;;26.17;10.87;;;0.10;80.60;;;;;;5020088;28;20951;-77
2023/01/30 04:38:29;;;;;;;22.25;9.45;;;0.10;80.50;;;;;;5024939;28;20513;-77
2023/01/30 04:40:56;;;;;;;20.02;9.63;;;0.10;80.50;;;;;;5017891;28;20198;-75
2023/01/30 04:43:23;;;;;;;22.50;10.75;;;0.20;80.20;;;;;;5018503;28;20207;-76
2023/01/30 04:45:50;;;;;;;16.17;10.07;;;0.20;79.90;;;;;;5017275;28;20193;-75
2023/01/30 04:48:17;;;;;;;18.30;9.15;;;0.30;79.70;;;;;;5020693;28;20276;-76
2023/01/30 04:50:45;;;;;;;27.73;9.85;;;0.30;79.60;;;;;;5013811;28;20212;-76
2023/01/30 04:53:11;;;;;;;15.75;8.82;;;0.30;79.30;;;;;;5015213;28;20186;-76
2023/01/30 04:55:37;;;;;;;18.03;9.10;;;0.30;79.30;;;;;;5013632;28;20273;-76
2023/01/30 04:58:02;;;;;;;17.23;9.60;;;0.40;79.30;;;;;;5020216;28;20208;-76
2023/01/30 05:00:29;;;;;;;19.33;9.90;;;0.50;78.90;;;;;;5011853;28;20577;-76
2023/01/30 05:02:57;;;;;;;17.27;8.60;;;0.50;78.40;;;;;;5024555;28;20220;-76
2023/01/30 05:05:24;;;;;;;18.98;9.27;;;0.50;78.30;;;;;;5014435;28;20178;-77
2023/01/30 05:07:49;;;;;;;20.02;9.45;;;0.50;78.40;;;;;;5018681;28;20189;-75
2023/01/30 05:10:16;;;;;;;17.57;9.10;;;0.50;78.30;;;;;;5011502;28;20297;-75
2023/01/30 05:12:41;;;;;;;15.38;9.23;;;0.50;78.40;;;;;;5019555;28;20657;-76
2023/01/30 05:15:08;;;;;;;21.43;10.07;;;0.60;78.40;;;;;;5021721;28;20220;-75
2023/01/30 05:17:34;;;;;;;15.48;8.52;;;0.60;78.30;;;;;;5017040;28;20255;-76
2023/01/30 05:19:59;;;;;;;21.42;9.45;;;0.60;78.10;;;;;;5017188;28;20367;-75
2023/01/30 05:22:25;;;;;;;19.93;9.40;;;0.60;77.80;;;;;;5016118;28;20190;-76
2023/01/30 05:24:50;;;;;;;18.20;9.53;;;0.70;77.80;;;;;;5021006;28;20182;-76
2023/01/30 05:27:16;;;;;;;19.50;9.40;;;0.80;77.60;;;;;;5013079;28;20186;-75
2023/01/30 05:29:42;;;;;;;17.60;8.57;;;0.70;77.30;;;;;;5022002;28;20264;-74
2023/01/30 05:32:14;;;;;;;20.40;8.50;;;0.80;77.30;;;;;;5015027;28;20184;-76
2023/01/30 05:34:40;;;;;;;14.32;7.85;;;0.80;77.10;;;;;;5017558;28;20201;-76
2023/01/30 05:37:05;;;;;;;18.73;8.40;;;0.80;76.70;;;;;;5021434;28;20540;-74
2023/01/30 05:39:31;;;;;;;20.07;9.43;;;0.70;77.10;;;;;;5025447;28;20674;-76
2023/01/30 05:41:57;;;;;;;12.17;8.17;;;0.80;77.10;;;;;;5014769;28;20215;-76
2023/01/30 05:44:22;;;;;;;17.53;9.40;;;0.70;77.40;;;;;;5017562;28;20268;-75
2023/01/30 05:46:48;;;;;;;18.50;9.33;;;0.70;77.60;;;;;;5015608;28;20185;-77
2023/01/30 05:49:15;;;;;;;18.70;8.57;;;0.70;77.80;;;;;;5015337;28;20504;-77
2023/01/30 05:51:40;;;;;;;21.50;9.45;;;0.60;78.00;;;;;;5017955;28;20553;-78
2023/01/30 05:54:06;;;;;;;19.17;9.37;;;0.70;78.10;;;;;;5026074;28;20178;-77
2023/01/30 05:56:32;;;;;;;15.63;8.52;;;0.70;78.00;;;;;;5017829;28;20182;-75
2023/01/30 05:58:59;;;;;;;16.73;8.47;;;0.70;78.10;;;;;;5013118;28;20204;-77
2023/01/30 06:01:25;;;;;;;20.27;9.82;;;0.70;78.10;;;;;;5021106;28;20216;-77
2023/01/30 06:03:51;;;;;;;19.73;9.52;;;0.70;78.30;;;;;;5028866;28;20201;-76
2023/01/30 06:06:17;;;;;;;19.77;9.97;;;0.70;78.30;;;;;;5018538;28;20234;-76
2023/01/30 06:08:43;;;;;;;21.98;8.90;;;0.70;78.30;;;;;;5024401;28;20491;-78
2023/01/30 06:11:11;;;;;;;19.10;9.67;;;0.70;78.10;;;;;;5013793;28;20202;-77
2023/01/30 06:13:37;;;;;;;23.15;9.88;;;0.70;78.10;;;;;;5023068;28;20437;-74
2023/01/30 06:16:07;;;;;;;15.83;8.30;;;0.70;78.10;;;;;;5019216;28;20205;-74
2023/01/30 06:18:33;;;;;;;16.88;8.60;;;0.60;78.10;;;;;;5021384;28;20417;-74
2023/01/30 06:20:59;;;;;;;19.50;10.10;;;0.70;78.30;;;;;;5027436;28;20212;-74
2023/01/30 06:23:24;;;;;;;19.07;8.00;;;0.70;78.30;;;;;;5019299;28;20570;-76
2023/01/30 06:25:51;;;;;;;20.00;9.83;;;0.60;78.10;;;;;;5018877;28;20234;-75
2023/01/30 06:28:17;;;;;;;23.73;10.52;;;0.60;78.30;;;;;;5023141;28;20177;-75
2023/01/30 06:30:43;;;;;;;16.08;9.00;;;0.60;78.30;;;;;;5005589;28;20197;-75
2023/01/30 06:33:09;;;;;;;20.07;9.80;;;0.60;78.30;;;;;;5019866;28;20260;-76
2023/01/30 06:35:39;;;;;;;22.98;9.77;;;0.60;78.30;;;;;;5029060;28;20178;-75
2023/01/30 06:38:05;;;;;;;22.92;9.25;;;0.60;78.40;;;;;;5033744;28;20189;-76
2023/01/30 06:40:31;;;;;;;23.35;8.85;;;0.70;78.60;;;;;;5023489;28;20202;-76
2023/01/30 06:42:56;;;;;;;29.23;9.20;;;0.70;78.60;;;;;;5017363;28;20685;-75
2023/01/30 06:45:22;;;;;;;22.60;9.30;;;0.70;78.60;;;;;;5024757;28;20425;-75
2023/01/30 06:47:52;;;;;;;21.40;10.33;;;0.70;78.70;;;;;;5016346;28;20178;-75
2023/01/30 06:50:21;;;;;;;20.38;8.50;;;0.70;78.90;;;;;;5020868;28;20207;-76
2023/01/30 06:52:49;;;;;;;23.27;9.98;;;0.70;79.00;;;;;;5017847;28;20212;-76
2023/01/30 06:55:17;;;;;;;19.50;8.82;;;0.70;79.00;;;;;;5014565;28;20228;-76
2023/01/30 06:57:43;;;;;;;18.73;9.35;;;0.70;79.00;;;;;;5012999;28;20194;-76
2023/01/30 07:00:11;;;;;;;17.63;8.63;;;0.70;79.20;;;;;;5010016;28;20209;-76
2023/01/30 07:02:37;;;;;;;14.45;8.38;;;0.80;79.20;;;;;;5018497;28;20205;-76
2023/01/30 07:05:05;;;;;;;14.07;8.30;;;0.80;79.00;;;;;;5025321;28;20181;-77
2023/01/30 07:07:31;;;;;;;14.65;9.27;;;0.80;79.20;;;;;;5014642;28;20272;-76
2023/01/30 07:09:57;;;;;;;18.63;9.27;;;0.80;79.20;;;;;;5016308;28;20686;-76
2023/01/30 07:12:23;;;;;;;20.00;9.90;;;0.90;79.20;;;;;;5011814;28;20178;-77
2023/01/30 07:14:50;;;;;;;19.10;9.48;;;0.90;78.90;;;;;;5019363;28;20174;-75
2023/01/30 07:17:16;;;;;;;18.15;8.77;;;0.90;78.90;;;;;;5021192;28;20194;-77
2023/01/30 07:19:42;;;;;;;20.15;9.63;;;0.90;79.00;;;;;;5013996;28;20649;-76
2023/01/30 07:22:08;;;;;;;21.75;9.50;;;1.00;78.90;;;;;;5010590;28;20193;-75
2023/01/30 07:24:33;;;;;;;17.07;8.60;;;1.00;78.90;;;;;;5014779;28;20258;-75
2023/01/30 07:26:59;;;;;;;18.33;9.13;;;1.00;78.70;;;;;;5021019;28;20289;-76
2023/01/30 07:29:24;;;;;;;19.23;9.90;;;1.00;78.90;;;;;;5024865;28;20326;-74
2023/01/30 07:31:50;;;;;;;15.60;8.30;;;1.00;78.90;;;;;;5021140;28;20219;-75
2023/01/30 07:34:16;;;;;;;20.67;9.60;;;1.00;78.70;;;;;;5025290;28;20200;-76
2023/01/30 07:36:42;;;;;;;16.37;8.50;;;1.00;78.90;;;;;;5029763;28;20420;-77
2023/01/30 07:39:08;;;;;;;26.00;10.43;;;1.10;78.90;;;;;;5019232;28;20419;-77
2023/01/30 07:41:37;;;;;;;18.05;9.10;;;1.10;78.90;;;;;;5012347;28;20600;-76
2023/01/30 07:44:02;;;;;;;22.48;9.40;;;1.10;79.00;;;;;;5016128;28;20285;-77
2023/01/30 07:46:33;;;;;;;17.97;8.40;;;1.20;79.20;;;;;;5012797;28;20280;-76
2023/01/30 07:49:00;;;;;;;16.65;8.95;;;1.30;79.20;;;;;;5013920;28;20174;-77
2023/01/30 07:51:26;;;;;;;18.55;9.02;;;1.30;79.20;;;;;;5012323;28;20253;-77
2023/01/30 07:53:51;;;;;;;17.57;8.50;;;1.40;79.20;;;;;;5015372;28;20205;-77
2023/01/30 07:56:19;;;;;;;16.63;8.03;;;1.40;79.00;;;;;;5022267;28;20190;-76
2023/01/30 07:58:45;;;;;;;13.43;7.43;;;1.50;79.20;;;;;;5014697;28;20225;-76
2023/01/30 08:01:10;;;;;;;14.00;7.63;;;1.50;78.70;;;;;;5016368;28;20207;-75
2023/01/30 08:03:36;;;;;;;13.97;7.10;;;1.50;78.90;;;;;;5012154;28;20479;-76
2023/01/30 08:06:01;;;;;;;15.10;7.80;;;1.50;78.70;;;;;;5012782;28;20260;-77
2023/01/30 08:08:27;;;;;;;15.77;7.47;;;1.60;78.90;;;;;;5016148;28;20183;-77
2023/01/30 08:10:53;;;;;;;13.52;7.97;;;1.60;78.70;;;;;;5020978;28;20701;-77
2023/01/30 08:13:19;;;;;;;18.53;9.17;;;1.60;78.70;;;;;;5024757;28;20285;-77
2023/01/30 08:15:44;;;;;;;14.27;7.57;;;1.50;78.70;;;;;;5022517;28;20267;-78
2023/01/30 08:18:10;;;;;;;16.67;8.10;;;1.60;78.70;;;;;;5023684;28;20185;-76
2023/01/30 08:20:36;;;;;;;14.70;7.80;;;1.50;78.90;;;;;;5016834;28;20684;-77
2023/01/30 08:23:02;;;;;;;22.17;8.30;;;1.50;79.20;;;;;;5026061;28;20218;-77
2023/01/30 08:25:28;;;;;;;17.23;7.70;;;1.50;79.60;;;;;;5026052;28;20452;-77
2023/01/30 08:27:54;;;;;;;18.20;8.88;;;1.50;79.90;;;;;;5021883;28;20185;-77
2023/01/30 08:30:20;;;;;;;20.00;9.10;;;1.50;80.20;;;;;;5012758;28;20210;-77
2023/01/30 08:32:46;;;;;;;15.35;7.88;;;1.50;80.50;;;;;;5021600;28;20486;-77
2023/01/30 08:35:12;;;;;;;17.50;8.23;;;1.40;80.60;;;;;;5018563;28;20662;-77
2023/01/30 08:37:41;;;;;;;13.43;7.50;;;1.50;80.80;;;;;;5021360;28;20185;-77
2023/01/30 08:40:07;;;;;;;22.73;8.25;;;1.50;80.80;;;;;;5015662;28;20692;-76
2023/01/30 08:42:33;;;;;;;19.02;8.00;;;1.60;80.50;;;;;;5031646;28;20170;-76
2023/01/30 08:44:59;;;;;;;17.50;8.30;;;1.60;80.50;;;;;;5044297;28;20183;-76
2023/01/30 08:47:24;;;;;;;16.30;7.67;;;1.60;80.30;;;;;;5045407;28;20192;-76
2023/01/30 08:49:51;;;;;;;16.87;7.30;;;1.60;80.20;;;;;;5034153;28;20208;-77
2023/01/30 08:52:20;;;;;;;16.33;8.05;;;1.70;80.00;;;;;;5037643;28;20182;-75
2023/01/30 08:54:46;;;;;;;19.88;8.25;;;1.80;79.70;;;;;;5021756;28;20178;-78
2023/01/30 08:57:13;;;;;;;15.35;7.25;;;1.90;79.30;;;;;;5018246;28;20186;-77
2023/01/30 08:59:39;;;;;;;20.60;8.57;;;1.90;79.20;;;;;;5016766;28;20178;-77
2023/01/30 09:02:05;;;;;;;17.30;7.07;;;2.00;79.20;;;;;;5015449;28;20270;-75
2023/01/30 09:04:31;;;;;;;14.30;7.00;;;2.00;79.00;;;;;;5018837;28;20260;-77
2023/01/30 09:06:57;;;;;;;14.95;7.57;;;2.00;79.00;;;;;;5016770;28;20205;-77
2023/01/30 09:09:22;;;;;;;14.60;7.70;;;2.00;79.00;;;;;;5016262;28;20182;-77
2023/01/30 09:11:48;;;;;;;11.93;6.70;;;2.00;79.00;;;;;;5015399;28;20300;-77
2023/01/30 09:14:18;;;;;;;17.60;7.30;;;2.00;79.20;;;;;;5020223;28;20216;-76
2023/01/30 09:16:54;;;;;;;17.30;7.43;;;2.10;79.30;;;;;;5015494;28;20447;-76
2023/01/30 09:19:28;;;;;;;15.65;7.68;;;2.20;79.50;;;;;;5014675;28;20231;-77
2023/01/30 09:21:54;;;;;;;12.10;6.45;;;2.30;79.00;;;;;;5015434;28;20231;-77
2023/01/30 09:24:25;;;;;;;15.30;7.00;;;2.40;78.90;;;;;;5022570;28;20213;-75
2023/01/30 09:26:56;;;;;;;15.63;7.00;;;2.40;78.40;;;;;;5019898;28;20252;-78
2023/01/30 09:29:22;;;;;;;12.87;7.57;;;2.40;78.40;;;;;;5019768;28;20697;-78
2023/01/30 09:31:48;;;;;;;14.27;7.10;;;2.50;78.40;;;;;;5013720;28;21013;-77
2023/01/30 09:34:14;;;;;;;14.70;7.00;;;2.50;78.60;;;;;;5016963;28;20198;-77
2023/01/30 09:36:40;;;;;;;12.70;7.10;;;2.60;78.60;;;;;;5015531;28;20851;-77
2023/01/30 09:39:05;;;;;;;14.00;6.67;;;2.70;78.30;;;;;;5023646;28;20274;-76
2023/01/30 09:41:51;;;;;;;10.67;5.80;;;2.70;78.30;;;;;;5020036;28;20217;-76
2023/01/30 09:44:53;;;;;;;12.83;6.30;;;2.70;78.40;;;;;;5019529;28;20472;-78
2023/01/30 09:47:27;;;;;;;11.68;6.40;;;2.70;78.60;;;;;;5018092;28;20431;-75
2023/01/30 09:50:03;;;;;;;11.50;5.47;;;2.80;78.60;;;;;;5012735;28;20712;-77
2023/01/30 09:52:50;;;;;;;10.90;5.80;;;2.90;78.60;;;;;;5016456;28;20201;-78
2023/01/30 09:55:28;;;;;;;13.77;5.70;;;2.90;78.40;;;;;;5015174;28;20447;-78
2023/01/30 09:57:56;;;;;;;13.82;5.45;;;3.10;78.40;;;;;;5021492;28;20527;-77
2023/01/30 10:00:34;;;;;;;12.18;5.13;;;3.20;78.40;;;;;;5016741;28;20212;-77
2023/01/30 10:03:17;;;;;;;12.10;5.50;;;3.20;78.10;;;;;;5015152;28;20201;-77
2023/01/30 10:06:01;;;;;;;9.83;5.00;;;3.30;78.00;;;;;;5012456;28;20500;-76
2023/01/30 10:08:50;;;;;;;10.00;5.40;;;3.20;78.00;;;;;;5016375;28;20779;-77
2023/01/30 10:11:21;;;;;;;7.87;4.90;;;3.30;78.00;;;;;;5006355;28;20910;-76
2023/01/30 10:14:15;;;;;;;14.13;5.90;;;3.30;77.80;;;;;;5019744;28;20409;-77
2023/01/30 10:16:49;;;;;;;9.53;4.80;;;3.40;77.60;;;;;;5015118;28;20417;-77
2023/01/30 10:19:49;;;;;;;9.10;5.03;;;3.50;77.40;;;;;;5019087;28;21326;-77
2023/01/30 10:22:38;;;;;;;8.50;4.33;;;3.60;77.60;;;;;;4995507;28;20436;-78
2023/01/30 10:25:13;;;;;;;7.33;4.27;;;3.70;77.60;;;;;;5028207;28;20424;-78
2023/01/30 10:28:06;;;;;;;8.30;4.57;;;3.80;77.30;;;;;;5018571;28;20416;-77
2023/01/30 10:30:33;;;;;;;5.13;3.40;;;3.90;77.30;;;;;;5011686;28;20498;-77
2023/01/30 10:33:19;;;;;;;7.43;3.50;;;4.00;77.40;;;;;;5015816;28;20977;-78
2023/01/30 10:36:00;;;;;;;5.53;3.10;;;4.10;77.30;;;;;;5013464;28;20459;-77
2023/01/30 10:38:33;;;;;;;5.97;2.90;;;4.10;77.30;;;;;;5013897;28;20475;-75
2023/01/30 10:41:17;;;;;;;6.13;3.30;;;4.10;77.40;;;;;;5012940;28;20530;-76
2023/01/30 10:43:54;;;;;;;12.47;4.23;;;4.10;77.60;;;;;;5011938;28;20469;-77
2023/01/30 10:46:49;;;;;;;6.77;3.80;;;4.20;77.70;;;;;;5016667;28;20424;-76
2023/01/30 10:49:23;;;;;;;6.60;3.60;;;4.20;78.00;;;;;;5009669;28;21301;-76
2023/01/30 10:52:23;;;;;;;8.13;4.17;;;4.20;78.00;;;;;;5012922;28;20539;-77
2023/01/30 10:55:26;;;;;;;5.43;3.10;;;4.20;78.30;;;;;;5021018;28;20467;-75
2023/01/30 10:57:55;;;;;;;5.20;2.90;;;4.20;78.30;;;;;;5009678;28;20452;-74
2023/01/30 11:00:39;;;;;;;6.80;3.23;;;4.30;78.30;;;;;;5010075;28;20581;-77
2023/01/30 11:03:18;;;;;;;6.13;3.20;;;4.30;78.30;;;;;;5010729;28;20468;-78
2023/01/30 11:05:46;;;;;;;6.77;3.07;;;4.30;78.60;;;;;;5016063;28;20421;-76
2023/01/30 11:08:28;;;;;;;6.43;3.07;;;4.40;78.40;;;;;;5016877;28;20423;-77
2023/01/30 11:10:56;;;;;;;8.53;3.80;;;4.30;78.60;;;;;;5016023;28;20478;-77
2023/01/30 11:13:30;;;;;;;5.93;3.13;;;4.40;78.90;;;;;;5032107;28;20428;-79
2023/01/30 11:15:59;;;;;;;5.20;2.83;;;4.30;79.60;;;;;;5021030;28;20874;-76
2023/01/30 11:18:25;;;;;;;8.20;2.77;;;4.30;80.60;;;;;;5030995;28;20546;-76
2023/01/30 11:21:28;;;;;;;8.37;3.20;;;4.30;81.70;;;;;;5018512;28;20464;-77
2023/01/30 11:23:54;;;;;;;5.43;3.00;;;4.20;81.90;;;;;;5014038;28;20539;-78
2023/01/30 11:26:35;;;;;;;5.83;2.97;;;4.10;82.10;;;;;;5023670;28;20519;-76
2023/01/30 11:29:22;;;;;;;6.30;2.93;;;4.00;82.50;;;;;;5023204;28;20419;-75
2023/01/30 11:31:49;;;;;;;7.83;3.80;;;4.00;82.50;;;;;;5022846;28;21291;-76
2023/01/30 11:34:18;;;;;;;8.45;4.15;;;4.00;82.40;;;;;;5014990;28;20421;-76
2023/01/30 11:36:46;;;;;;;9.03;3.97;;;4.00;82.40;;;;;;5013826;28;20182;-75
2023/01/30 11:39:11;;;;;;;11.90;3.77;;;4.00;82.50;;;;;;5019664;28;20420;-75
2023/01/30 11:41:41;;;;;;;9.30;4.20;;;3.90;82.80;;;;;;5013758;28;20460;-76
2023/01/30 11:44:10;;;;;;;8.37;4.20;;;3.90;83.60;;;;;;5012290;28;20212;-77
2023/01/30 11:46:39;;;;;;;8.38;4.05;;;3.70;84.60;;;;;;5015940;28;20504;-75
2023/01/30 11:49:15;;;;;;;6.43;3.83;;;3.60;85.70;;;;;;5011418;28;20634;-76
2023/01/30 11:51:44;;;;;;;6.95;4.47;;;3.40;86.90;;;;;;5007637;28;20216;-76
2023/01/30 11:54:27;;;;;;;9.40;4.43;;;3.30;87.60;;;;;;5011017;28;20174;-76
2023/01/30 11:56:55;;;;;;;9.93;5.13;;;3.10;88.40;;;;;;5020010;28;20674;-76
2023/01/30 11:59:35;;;;;;;9.30;4.70;;;3.10;89.30;;;;;;5011276;28;20294;-76
2023/01/30 12:02:22;;;;;;;9.80;4.65;;;3.10;89.70;;;;;;5012165;28;20200;-77
2023/01/30 12:04:54;;;;;;;10.35;4.63;;;3.10;89.90;;;;;;5021669;28;20193;-77
2023/01/30 12:07:23;;;;;;;9.40;4.10;;;3.10;90.10;;;;;;5009852;28;20220;-76
2023/01/30 12:09:50;;;;;;;7.22;4.30;;;3.00;90.30;;;;;;5006231;28;20188;-76
2023/01/30 12:12:27;;;;;;;8.40;5.32;;;3.00;90.60;;;;;;5014493;28;20197;-77
2023/01/30 12:15:03;;;;;;;14.43;5.13;;;3.00;91.00;;;;;;5011124;28;20221;-76
2023/01/30 12:18:16;;;;;;;7.73;4.60;;;2.90;91.10;;;;;;5015380;28;20197;-75
2023/01/30 12:20:53;;;;;;;9.60;4.37;;;2.90;91.30;;;;;;4990274;28;20467;-77
2023/01/30 12:23:37;;;;;;;7.90;4.20;;;2.90;91.50;;;;;;4996573;28;20476;-76
2023/01/30 12:26:36;;;;;;;8.77;4.80;;;2.90;91.70;;;;;;4994581;28;20500;-75
2023/01/30 12:29:23;;;;;;;8.90;4.78;;;2.80;91.70;;;;;;4989998;28;20792;-77
2023/01/30 12:32:14;;;;;;;6.88;4.05;;;2.80;92.00;;;;;;4989256;28;20365;-76
2023/01/30 12:34:41;;;;;;;9.32;4.88;;;2.80;92.00;;;;;;5000193;28;20186;-76
2023/01/30 12:37:21;;;;;;;8.38;4.53;;;2.80;91.90;;;;;;5007781;28;20186;-76
2023/01/30 12:39:57;;;;;;;9.57;5.13;;;2.90;92.00;;;;;;4987586;28;20238;-77
2023/01/30 12:42:23;;;;;;;8.68;4.80;;;2.90;91.90;;;;;;4999324;28;20199;-75
2023/01/30 12:44:58;;;;;;;9.50;4.93;;;2.90;91.80;;;;;;4992039;28;20228;-75
2023/01/30 12:47:52;;;;;;;10.40;4.88;;;2.90;91.90;;;;;;4988858;28;20198;-77
2023/01/30 12:50:30;;;;;;;11.02;5.80;;;3.00;92.00;;;;;;4988752;28;20249;-77
2023/01/30 12:53:04;;;;;;;10.52;5.22;;;2.90;91.80;;;;;;5012161;28;20544;-75
2023/01/30 12:55:39;;;;;;;8.32;4.78;;;2.90;91.70;;;;;;5010906;28;20183;-75
2023/01/30 12:58:24;;;;;;;10.85;5.55;;;2.80;91.80;;;;;;5019524;28;20203;-76
2023/01/30 13:01:08;;;;;;;11.55;5.07;;;2.80;92.00;;;;;;5021996;28;20212;-76
2023/01/30 13:03:40;;;;;;;9.85;5.25;;;2.70;92.10;;;;;;5015293;28;20209;-76
2023/01/30 13:06:22;;;;;;;11.70;5.30;;;2.70;92.50;;;;;;5017795;28;20245;-74
2023/01/30 13:08:57;;;;;;;13.48;4.53;;;2.70;92.70;;;;;;5019548;28;20663;-74